Terminal Aerodrome Forecast
Issued by NWS

Home | Current Version | Previous Version | Text Only | Print | Product List | Glossary On
Versions: 1 2 3 4 5 6 7 8 9 10 11 12
595
FTUS42 KTBW 212324
TAFRSW
TAF
KRSW 212324Z 2200/2224 08008KT P6SM FEW040 FEW250
     FM220300 08005KT P6SM SCT250
     FM220600 08005KT 6SM BR SCT015 BKN250
     FM220900 09004KT 3SM BR SCT004 BKN015
      TEMPO 2209/2213 1SM BR BKN004
     FM221400 12009KT P6SM FEW004 BKN015
     FM221700 17009KT P6SM SCT050 BKN250=

USA.gov is the U.S. government's official web portal to all federal, state and local government web resources and services.